createdAt,value
2018-12-17T05:04:31.125Z,12.97
2018-12-17T05:06:59.204Z,12.30
2018-12-17T05:09:27.287Z,12.90
2018-12-17T05:11:55.409Z,13.20
2018-12-17T05:14:23.475Z,13.20
2018-12-17T05:16:51.758Z,11.70
2018-12-17T05:19:19.961Z,13.20
2018-12-17T05:21:48.100Z,12.00
2018-12-17T05:24:16.168Z,12.40
2018-12-17T05:26:44.277Z,11.73
2018-12-17T05:29:12.360Z,11.23
2018-12-17T05:31:40.601Z,12.10
2018-12-17T05:34:08.697Z,12.40
2018-12-17T05:36:36.817Z,12.17
2018-12-17T05:39:06.461Z,13.63
2018-12-17T05:41:34.725Z,11.60
2018-12-17T05:44:02.845Z,11.30
2018-12-17T05:46:30.976Z,10.87
2018-12-17T05:48:59.083Z,13.40
2018-12-17T05:51:27.276Z,11.30
2018-12-17T05:53:55.368Z,11.33
2018-12-17T05:56:23.556Z,11.37
2018-12-17T05:58:51.624Z,11.63
2018-12-17T06:01:19.868Z,11.40
2018-12-17T06:03:48.001Z,11.23
2018-12-17T06:06:16.173Z,11.50
2018-12-17T06:08:44.302Z,10.47
2018-12-17T06:11:12.404Z,10.57
2018-12-17T06:13:40.503Z,9.80
2018-12-17T06:16:08.684Z,11.70
2018-12-17T06:18:36.956Z,11.77
2018-12-17T06:21:05.159Z,10.10
2018-12-17T06:23:33.316Z,9.97
2018-12-17T06:26:01.497Z,11.10
2018-12-17T06:28:29.592Z,10.60
2018-12-17T06:30:57.779Z,10.53
2018-12-17T06:33:25.836Z,9.77
2018-12-17T06:35:53.970Z,10.27
2018-12-17T06:38:22.110Z,12.00
2018-12-17T06:40:50.284Z,10.00
2018-12-17T06:43:18.566Z,9.80
2018-12-17T06:45:46.704Z,9.87
2018-12-17T06:48:17.186Z,9.87
2018-12-17T06:50:44.828Z,9.60
2018-12-17T06:53:12.882Z,9.80
2018-12-17T06:55:40.961Z,11.13
2018-12-17T06:58:09.223Z,10.07
2018-12-17T07:00:37.468Z,10.10
2018-12-17T07:03:05.542Z,9.80
2018-12-17T07:05:33.727Z,10.20
2018-12-17T07:08:01.875Z,9.03
2018-12-17T07:10:29.992Z,9.20
2018-12-17T07:12:58.129Z,9.43
2018-12-17T07:15:26.237Z,8.57
2018-12-17T07:17:54.358Z,9.50
2018-12-17T07:20:22.582Z,8.70
2018-12-17T07:22:50.699Z,9.33
2018-12-17T07:25:18.924Z,8.40
2018-12-17T07:27:47.159Z,9.30
2018-12-17T07:30:15.301Z,9.03
2018-12-17T07:32:45.768Z,8.83
2018-12-17T07:35:13.945Z,9.00
2018-12-17T07:37:42.011Z,10.27
2018-12-17T07:40:10.234Z,9.83
2018-12-17T07:42:38.327Z,9.43
2018-12-17T07:45:06.942Z,8.60
2018-12-17T07:47:35.092Z,9.60
2018-12-17T07:50:03.896Z,9.90
2018-12-17T07:52:32.044Z,9.43
2018-12-17T07:55:00.215Z,8.83
2018-12-17T07:57:28.283Z,10.73
2018-12-17T07:59:56.817Z,9.20
2018-12-17T08:02:25.337Z,9.57
2018-12-17T08:04:53.444Z,9.97
2018-12-17T08:07:21.507Z,10.80
2018-12-17T08:09:49.590Z,9.33
2018-12-17T08:12:17.896Z,9.70
2018-12-17T08:14:46.116Z,8.93
2018-12-17T08:17:14.496Z,9.67
2018-12-17T08:19:42.578Z,8.83
2018-12-17T08:22:10.688Z,7.83
2018-12-17T08:24:39.920Z,7.20
2018-12-17T08:27:08.028Z,8.67
2018-12-17T08:29:36.408Z,8.37
2018-12-17T08:32:04.798Z,8.10
2018-12-17T08:34:33.564Z,7.80
2018-12-17T08:37:01.744Z,7.30
2018-12-17T08:39:29.928Z,7.07
2018-12-17T08:41:58.120Z,6.70
2018-12-17T08:44:26.336Z,6.87
2018-12-17T08:46:54.512Z,6.77
2018-12-17T08:49:24.906Z,6.23
2018-12-17T08:51:55.966Z,6.57
2018-12-17T08:54:27.160Z,7.03
2018-12-17T08:56:56.349Z,5.90
2018-12-17T08:59:24.665Z,5.80
2018-12-17T09:01:52.836Z,5.07
2018-12-17T09:04:21.018Z,5.70
2018-12-17T09:06:49.461Z,5.20
2018-12-17T09:09:17.597Z,5.83
2018-12-17T09:11:45.798Z,6.00
2018-12-17T09:14:13.948Z,5.70
2018-12-17T09:16:42.129Z,5.67
2018-12-17T09:19:10.264Z,5.53
2018-12-17T09:21:38.343Z,5.27
2018-12-17T09:24:06.550Z,5.50
2018-12-17T09:26:34.665Z,5.43
2018-12-17T09:29:02.810Z,4.77
2018-12-17T09:31:32.997Z,4.77
2018-12-17T09:34:01.083Z,5.20
2018-12-17T09:36:29.284Z,4.70
2018-12-17T09:38:57.419Z,4.77
2018-12-17T09:41:25.630Z,4.93
2018-12-17T09:43:53.776Z,5.27
2018-12-17T09:46:21.988Z,5.30
2018-12-17T09:48:50.143Z,5.87
2018-12-17T09:51:19.679Z,5.10
2018-12-17T09:53:48.188Z,5.30
2018-12-17T09:56:16.273Z,4.87
2018-12-17T09:58:44.409Z,4.33
2018-12-17T10:01:12.637Z,4.90
2018-12-17T10:03:41.866Z,5.17
2018-12-17T10:06:10.329Z,4.70
2018-12-17T10:08:38.910Z,4.13
2018-12-17T10:11:07.065Z,5.17
2018-12-17T10:13:35.286Z,3.80
2018-12-17T10:16:03.503Z,4.07
2018-12-17T10:18:36.867Z,4.10
2018-12-17T10:21:01.777Z,4.10
2018-12-17T10:23:29.932Z,4.07
2018-12-17T10:25:58.157Z,3.80
2018-12-17T10:28:26.343Z,3.87
2018-12-17T10:30:54.616Z,4.00
2018-12-17T10:33:22.711Z,3.70
2018-12-17T10:35:50.944Z,4.00
2018-12-17T10:38:19.143Z,3.90
2018-12-17T10:40:47.363Z,3.70
2018-12-17T10:43:15.487Z,3.00
2018-12-17T10:45:43.542Z,3.43
2018-12-17T10:48:11.732Z,3.33
2018-12-17T10:50:39.888Z,3.20
2018-12-17T10:53:07.980Z,3.10
2018-12-17T10:55:36.168Z,3.90
2018-12-17T10:58:04.380Z,3.80
2018-12-17T11:00:39.457Z,4.07
2018-12-17T11:03:13.028Z,4.00
2018-12-17T11:05:44.605Z,4.00
2018-12-17T11:08:12.697Z,4.60
2018-12-17T11:10:40.945Z,4.47
2018-12-17T11:13:09.200Z,4.57
2018-12-17T11:15:37.317Z,4.50
2018-12-17T11:18:05.464Z,4.50
2018-12-17T11:20:33.529Z,4.23
2018-12-17T11:23:01.701Z,3.87
2018-12-17T11:25:30.069Z,4.40
2018-12-17T11:27:58.208Z,4.40
2018-12-17T11:30:26.339Z,4.23
2018-12-17T11:32:54.479Z,4.53
2018-12-17T11:35:22.539Z,4.10
2018-12-17T11:37:50.629Z,4.33
2018-12-17T11:40:18.709Z,3.90
2018-12-17T11:42:46.757Z,5.17
2018-12-17T11:45:14.840Z,5.17
2018-12-17T11:47:42.920Z,4.17
2018-12-17T11:50:11.116Z,5.00
2018-12-17T11:52:39.259Z,4.70
2018-12-17T11:55:07.462Z,4.20
2018-12-17T11:58:15.127Z,4.03
2018-12-17T12:00:56.256Z,4.80
2018-12-17T12:03:24.474Z,4.37
2018-12-17T12:05:52.616Z,4.20
2018-12-17T12:08:20.868Z,4.30
2018-12-17T12:10:49.110Z,4.70
2018-12-17T12:13:17.215Z,3.83
2018-12-17T12:15:45.327Z,4.13
2018-12-17T12:18:13.428Z,3.77
2018-12-17T12:20:41.612Z,4.53
2018-12-17T12:23:09.817Z,4.30
2018-12-17T12:25:38.009Z,4.40
2018-12-17T12:28:06.085Z,4.33
2018-12-17T12:30:34.297Z,4.33
2018-12-17T12:33:02.489Z,3.53
2018-12-17T12:35:30.575Z,3.90
2018-12-17T12:37:58.676Z,3.40
2018-12-17T12:40:26.810Z,4.00
2018-12-17T12:42:54.983Z,3.00
2018-12-17T12:45:23.136Z,3.47
2018-12-17T12:47:51.217Z,3.57
2018-12-17T12:50:19.409Z,3.50
2018-12-17T12:52:47.495Z,3.43
2018-12-17T12:55:15.604Z,3.00
2018-12-17T12:57:43.845Z,2.70
2018-12-17T13:00:13.983Z,3.00
2018-12-17T13:02:42.095Z,2.77
2018-12-17T13:05:10.320Z,2.53
2018-12-17T13:07:38.446Z,2.50
2018-12-17T13:10:09.120Z,2.30
2018-12-17T13:12:37.371Z,2.47
2018-12-17T13:15:07.372Z,2.30
2018-12-17T13:17:35.645Z,2.23
2018-12-17T13:20:04.733Z,2.70
2018-12-17T13:22:32.860Z,2.37
2018-12-17T13:25:01.115Z,2.30
2018-12-17T13:27:29.320Z,2.43
2018-12-17T13:29:57.401Z,2.30
2018-12-17T13:32:25.510Z,2.67
2018-12-17T13:34:53.665Z,2.20
2018-12-17T13:37:21.743Z,2.70
2018-12-17T13:39:49.875Z,3.00
2018-12-17T13:42:18.705Z,2.50
2018-12-17T13:44:46.944Z,3.07
2018-12-17T13:47:15.172Z,3.03
2018-12-17T13:49:43.386Z,3.43
2018-12-17T13:52:16.821Z,3.17
2018-12-17T13:54:44.939Z,3.73
2018-12-17T13:57:13.209Z,4.33
2018-12-17T13:59:41.419Z,5.40
2018-12-17T14:02:09.899Z,3.80
2018-12-17T14:04:38.041Z,4.00
2018-12-17T14:07:06.266Z,3.90
2018-12-17T14:09:38.623Z,4.90
2018-12-17T14:12:06.778Z,4.57
2018-12-17T14:14:34.977Z,4.30
2018-12-17T14:17:11.439Z,4.10
2018-12-17T14:19:41.497Z,3.97
2018-12-17T14:22:09.569Z,4.70
2018-12-17T14:24:37.747Z,4.83
2018-12-17T14:27:05.821Z,5.60
2018-12-17T14:29:33.974Z,4.70
2018-12-17T14:32:02.195Z,4.60
2018-12-17T14:34:30.399Z,4.93
2018-12-17T14:36:58.584Z,5.13
2018-12-17T14:39:26.668Z,4.30
2018-12-17T14:41:54.756Z,4.60
2018-12-17T14:44:28.294Z,5.57
2018-12-17T14:46:58.598Z,4.87
2018-12-17T14:49:26.801Z,4.67
2018-12-17T14:51:55.133Z,4.40
2018-12-17T14:54:23.336Z,4.70
2018-12-17T14:56:51.576Z,5.03
2018-12-17T14:59:19.636Z,5.83
2018-12-17T15:01:47.854Z,5.40
2018-12-17T15:04:16.050Z,4.67
2018-12-17T15:06:44.147Z,4.70
2018-12-17T15:09:12.271Z,4.97
2018-12-17T15:11:40.491Z,5.27
2018-12-17T15:14:08.664Z,5.50
2018-12-17T15:16:36.837Z,5.07
2018-12-17T15:19:05.111Z,5.40
2018-12-17T15:21:33.253Z,5.40
2018-12-17T15:24:01.429Z,6.73
2018-12-17T15:26:29.646Z,6.37
2018-12-17T15:28:57.849Z,5.60
2018-12-17T15:31:26.034Z,5.70
2018-12-17T15:33:54.317Z,5.10
2018-12-17T15:36:22.472Z,5.40
2018-12-17T15:38:50.625Z,6.67
2018-12-17T15:41:18.735Z,5.97
2018-12-17T15:43:46.988Z,6.50
2018-12-17T15:46:15.143Z,5.63
2018-12-17T15:48:43.320Z,5.80
2018-12-17T15:51:11.487Z,5.77
2018-12-17T15:53:39.564Z,5.30
2018-12-17T15:56:07.719Z,6.80
2018-12-17T15:58:35.876Z,6.50
2018-12-17T16:01:04.088Z,6.00
2018-12-17T16:03:32.305Z,6.70
2018-12-17T16:06:00.567Z,7.57
2018-12-17T16:08:28.677Z,7.50
2018-12-17T16:10:56.833Z,8.10
2018-12-17T16:13:25.097Z,8.03
2018-12-17T16:15:53.260Z,8.87
2018-12-17T16:18:21.480Z,8.80
2018-12-17T16:20:49.677Z,8.30
2018-12-17T16:23:17.784Z,8.30
2018-12-17T16:25:46.023Z,7.20
2018-12-17T16:28:14.220Z,7.03
2018-12-17T16:30:42.376Z,7.70
2018-12-17T16:33:10.512Z,7.27
2018-12-17T16:35:38.623Z,6.67
2018-12-17T16:38:06.680Z,6.30
2018-12-17T16:40:34.826Z,6.87
2018-12-17T16:43:02.957Z,6.50
2018-12-17T16:45:31.149Z,5.07
2018-12-17T16:47:59.299Z,5.93
2018-12-17T16:50:27.491Z,5.60
2018-12-17T16:52:55.615Z,5.73
2018-12-17T16:55:23.809Z,6.23
2018-12-17T16:57:51.889Z,6.30
2018-12-17T17:00:20.096Z,5.63
2018-12-17T17:02:48.314Z,6.83
2018-12-17T17:05:16.426Z,5.73
2018-12-17T17:07:44.584Z,5.60
2018-12-17T17:10:12.775Z,5.80
2018-12-17T17:12:40.973Z,5.50
2018-12-17T17:15:11.082Z,6.03
2018-12-17T17:17:39.479Z,6.43
2018-12-17T17:20:09.547Z,5.60
2018-12-17T17:22:38.007Z,10.70
2018-12-17T17:25:06.594Z,8.57
2018-12-17T17:27:34.780Z,8.87
2018-12-17T17:30:02.969Z,9.73
2018-12-17T17:32:31.116Z,8.53
2018-12-17T17:34:59.180Z,7.60
2018-12-17T17:37:27.254Z,7.97
2018-12-17T17:39:55.409Z,13.70
2018-12-17T17:42:23.544Z,17.90
2018-12-17T17:44:51.614Z,10.40
2018-12-17T17:47:19.767Z,14.17
2018-12-17T17:49:47.879Z,9.90
2018-12-17T17:52:15.944Z,10.20
2018-12-17T17:54:44.090Z,10.10
2018-12-17T17:57:12.156Z,11.03
2018-12-17T17:59:40.339Z,10.10
2018-12-17T18:02:08.488Z,10.23
2018-12-17T18:04:37.224Z,10.20
2018-12-17T18:07:05.449Z,12.80
2018-12-17T18:09:33.684Z,11.27
2018-12-17T18:12:01.753Z,13.23
2018-12-17T18:14:29.826Z,11.57
2018-12-17T18:16:57.983Z,12.97
2018-12-17T18:19:26.133Z,12.27
2018-12-17T18:21:54.263Z,12.70
2018-12-17T18:24:22.474Z,14.47
2018-12-17T18:26:50.662Z,13.93
2018-12-17T18:29:18.871Z,13.60
2018-12-17T18:31:47.089Z,14.30
2018-12-17T18:34:15.208Z,14.60
2018-12-17T18:36:43.438Z,15.50
2018-12-17T18:39:11.653Z,15.13
2018-12-17T18:41:39.891Z,15.20
2018-12-17T18:44:07.948Z,15.87
2018-12-17T18:46:36.465Z,16.60
2018-12-17T18:49:04.639Z,16.30
2018-12-17T18:51:32.785Z,22.93
2018-12-17T18:54:00.977Z,18.50
2018-12-17T18:56:29.264Z,20.47
2018-12-17T18:58:57.546Z,18.63
2018-12-17T19:01:25.699Z,17.17
2018-12-17T19:03:54.025Z,17.13
2018-12-17T19:06:22.163Z,22.30
2018-12-17T19:08:50.323Z,23.27
2018-12-17T19:11:18.567Z,25.43
2018-12-17T19:13:46.776Z,19.47
2018-12-17T19:16:14.954Z,19.70
2018-12-17T19:18:43.147Z,24.20
2018-12-17T19:21:11.381Z,23.27
2018-12-17T19:23:39.541Z,20.50
2018-12-17T19:26:07.672Z,20.63
2018-12-17T19:28:35.932Z,27.17
2018-12-17T19:31:04.120Z,25.47
2018-12-17T19:33:32.265Z,23.13
2018-12-17T19:36:00.589Z,21.83
2018-12-17T19:38:28.915Z,22.70
2018-12-17T19:40:57.155Z,24.33
2018-12-17T19:43:25.279Z,22.53
2018-12-17T19:45:53.455Z,20.70
2018-12-17T19:48:21.609Z,22.27
2018-12-17T19:50:49.877Z,21.33
2018-12-17T19:53:18.003Z,20.97
2018-12-17T19:55:46.185Z,21.37
2018-12-17T19:58:14.305Z,21.17
2018-12-17T20:00:42.529Z,20.33
2018-12-17T20:03:10.764Z,21.17
2018-12-17T20:05:39.024Z,21.73
2018-12-17T20:08:07.130Z,22.47
2018-12-17T20:10:35.543Z,29.50
2018-12-17T20:13:03.945Z,24.10
2018-12-17T20:15:32.280Z,21.10
2018-12-17T20:18:00.479Z,20.10
2018-12-17T20:20:29.103Z,21.47
2018-12-17T20:22:58.600Z,20.80
2018-12-17T20:25:28.145Z,21.00
2018-12-17T20:27:56.455Z,20.57
2018-12-17T20:30:24.931Z,21.43
2018-12-17T20:32:53.665Z,20.00
2018-12-17T20:35:23.099Z,20.43
2018-12-17T20:37:51.256Z,19.67
2018-12-17T20:40:19.468Z,20.20
2018-12-17T20:42:47.620Z,21.90
2018-12-17T20:45:16.461Z,18.00
2018-12-17T20:47:44.561Z,20.13
2018-12-17T20:50:13.075Z,20.40
2018-12-17T20:52:41.543Z,20.50
2018-12-17T20:55:09.808Z,19.40
2018-12-17T20:57:37.913Z,18.53
2018-12-17T21:00:06.680Z,24.80
2018-12-17T21:02:34.917Z,18.80
2018-12-17T21:05:03.069Z,18.50
2018-12-17T21:07:31.265Z,19.17
2018-12-17T21:09:59.618Z,19.43
2018-12-17T21:12:28.002Z,17.80
2018-12-17T21:14:56.214Z,18.83
2018-12-17T21:17:24.382Z,18.90
2018-12-17T21:19:52.512Z,18.30
2018-12-17T21:22:20.622Z,18.10
2018-12-17T21:24:48.923Z,18.33
2018-12-17T21:27:17.852Z,18.83
2018-12-17T21:29:45.985Z,17.70
2018-12-17T21:32:14.107Z,17.90
2018-12-17T21:34:42.213Z,17.97
2018-12-17T21:37:10.440Z,16.30
2018-12-17T21:39:38.753Z,16.87
2018-12-17T21:42:06.980Z,17.53
2018-12-17T21:44:35.166Z,17.10
2018-12-17T21:47:03.312Z,16.80
2018-12-17T21:49:31.377Z,17.83
2018-12-17T21:51:59.547Z,16.53
2018-12-17T21:54:27.764Z,16.20
2018-12-17T21:56:55.913Z,17.63
2018-12-17T21:59:24.068Z,17.00
2018-12-17T22:29:35.233Z,15.13
2018-12-17T22:32:03.428Z,15.13
2018-12-17T22:34:31.577Z,16.30
2018-12-17T22:36:59.743Z,14.50
2018-12-17T22:39:28.019Z,15.53
2018-12-17T22:41:56.119Z,14.97
2018-12-17T22:44:24.354Z,15.50
2018-12-17T22:46:52.548Z,15.23
2018-12-17T22:49:20.792Z,15.07
2018-12-17T22:51:48.959Z,14.90
2018-12-17T22:54:17.092Z,15.40
2018-12-17T22:56:45.246Z,14.50
2018-12-17T22:59:13.382Z,14.47
2018-12-17T23:01:41.575Z,15.60
2018-12-17T23:04:09.670Z,15.17
2018-12-17T23:06:37.817Z,14.50
2018-12-17T23:09:07.066Z,14.17
2018-12-17T23:11:52.162Z,12.97
2018-12-17T23:14:31.892Z,14.10
2018-12-17T23:17:11.619Z,16.10
2018-12-17T23:19:41.981Z,14.47
2018-12-17T23:22:10.364Z,14.13
2018-12-17T23:24:38.547Z,13.77
2018-12-17T23:27:07.025Z,15.90
2018-12-17T23:29:35.177Z,13.97
2018-12-17T23:32:03.419Z,14.87
2018-12-17T23:34:31.612Z,16.07
2018-12-17T23:36:59.800Z,13.60
2018-12-17T23:39:27.941Z,14.93
2018-12-17T23:41:56.011Z,15.10
2018-12-17T23:44:24.192Z,15.27
2018-12-17T23:46:52.333Z,14.57
2018-12-17T23:49:20.465Z,13.97
2018-12-17T23:51:48.623Z,15.17
2018-12-17T23:54:16.920Z,15.40
2018-12-17T23:56:44.975Z,13.97
2018-12-17T23:59:13.133Z,15.43
